Time;durP1;ratioP1;P1;durP2;ratioP2;P2;SDS_P1;SDS_P2;PMS_P1;PMS_P2;Temp;Humidity;BMP_temperature;BMP_pressure;BME280_temperature;BME280_humidity;BME280_pressure;Samples;Min_cycle;Max_cycle;Signal;HPM_P1;HPM_P2
2023/01/29 00:01:21;;;;;;;23.10;9.40;;;4.60;99.90;;;;;;4982703;28;20089;-70
2023/01/29 00:03:50;;;;;;;16.25;8.60;;;4.60;99.90;;;;;;4982531;28;20472;-70
2023/01/29 00:06:15;;;;;;;12.93;7.70;;;4.60;99.90;;;;;;4981244;28;20054;-70
2023/01/29 00:08:41;;;;;;;14.57;8.05;;;4.60;99.90;;;;;;4983476;28;20049;-70
2023/01/29 00:11:08;;;;;;;14.30;7.95;;;4.60;99.90;;;;;;4983821;28;20042;-71
2023/01/29 00:13:33;;;;;;;13.07;7.63;;;4.60;99.90;;;;;;4985080;28;20053;-70
2023/01/29 00:15:59;;;;;;;12.80;7.18;;;4.60;99.90;;;;;;4976509;28;20046;-69
2023/01/29 00:18:26;;;;;;;14.18;7.78;;;4.60;99.90;;;;;;4985387;28;20509;-70
2023/01/29 00:20:52;;;;;;;14.82;7.57;;;4.60;99.90;;;;;;4982316;28;20093;-70
2023/01/29 00:23:18;;;;;;;12.07;7.35;;;4.70;99.90;;;;;;4984164;28;20105;-70
2023/01/29 00:25:44;;;;;;;12.13;7.47;;;4.60;99.90;;;;;;4983474;28;20089;-69
2023/01/29 00:28:10;;;;;;;13.45;7.82;;;4.60;99.90;;;;;;4982278;28;20042;-70
2023/01/29 00:30:36;;;;;;;12.05;7.75;;;4.60;99.90;;;;;;4981181;28;20055;-70
2023/01/29 00:33:02;;;;;;;14.20;8.30;;;4.60;99.90;;;;;;4982128;28;20277;-70
2023/01/29 00:35:28;;;;;;;12.93;6.60;;;4.60;99.90;;;;;;4983589;28;20058;-70
2023/01/29 00:37:55;;;;;;;10.02;6.97;;;4.60;99.90;;;;;;4983155;28;20050;-71
2023/01/29 00:40:21;;;;;;;14.77;7.45;;;4.60;99.90;;;;;;4981925;28;20050;-70
2023/01/29 00:45:33;;;;;;;16.27;7.30;;;4.60;99.90;;;;;;4984790;28;20074;-70
2023/01/29 00:47:59;;;;;;;11.77;7.55;;;4.60;99.90;;;;;;4984231;28;20498;-70
2023/01/29 00:50:24;;;;;;;15.45;7.82;;;4.60;99.90;;;;;;4980180;28;20043;-70
2023/01/29 00:52:51;;;;;;;16.23;7.95;;;4.60;99.90;;;;;;4984024;28;20497;-70
2023/01/29 00:55:17;;;;;;;15.38;8.85;;;4.70;99.90;;;;;;4983322;28;20046;-70
2023/01/29 00:57:43;;;;;;;13.77;8.43;;;4.60;99.90;;;;;;4982075;28;20663;-70
2023/01/29 01:00:12;;;;;;;16.10;8.45;;;4.60;99.90;;;;;;4980253;28;20536;-70
2023/01/29 01:05:23;;;;;;;18.05;9.52;;;4.60;99.90;;;;;;4981230;28;20129;-70
2023/01/29 01:07:52;;;;;;;15.57;9.13;;;4.60;99.90;;;;;;4983666;28;20048;-70
2023/01/29 01:10:27;;;;;;;17.20;10.05;;;4.70;99.90;;;;;;4982943;28;20042;-70
2023/01/29 01:12:54;;;;;;;14.70;9.90;;;4.60;99.90;;;;;;4979313;28;20049;-71
2023/01/29 01:15:21;;;;;;;18.98;11.57;;;4.60;99.90;;;;;;4978899;28;20141;-70
2023/01/29 01:17:47;;;;;;;17.58;11.45;;;4.60;99.90;;;;;;4983074;28;20045;-70
2023/01/29 01:20:14;;;;;;;15.60;10.48;;;4.60;99.90;;;;;;4984538;28;20129;-70
2023/01/29 01:22:39;;;;;;;17.88;10.73;;;4.60;99.90;;;;;;4983571;28;20053;-70
2023/01/29 01:25:05;;;;;;;20.30;12.23;;;4.60;99.90;;;;;;4981347;28;20042;-71
2023/01/29 01:27:33;;;;;;;19.08;13.60;;;4.70;99.90;;;;;;4979077;28;20053;-70
2023/01/29 01:29:59;;;;;;;19.70;11.73;;;4.70;99.90;;;;;;4982411;28;20047;-70
2023/01/29 01:32:25;;;;;;;16.88;10.88;;;4.60;99.90;;;;;;4980736;28;20057;-71
2023/01/29 01:34:52;;;;;;;20.20;11.13;;;4.60;99.90;;;;;;4979307;28;20653;-70
2023/01/29 01:37:18;;;;;;;18.23;11.63;;;4.70;99.90;;;;;;4981383;28;20410;-70
2023/01/29 01:39:49;;;;;;;16.05;10.27;;;4.70;99.90;;;;;;4981145;28;20778;-70
2023/01/29 01:42:15;;;;;;;17.65;10.63;;;4.70;99.90;;;;;;4979520;28;20046;-70
2023/01/29 01:45:03;;;;;;;16.42;11.45;;;4.70;99.90;;;;;;4982522;28;20060;-70
2023/01/29 01:47:31;;;;;;;15.25;10.15;;;4.70;99.90;;;;;;4996527;28;20105;-71
2023/01/29 01:50:01;;;;;;;19.20;11.38;;;4.70;99.90;;;;;;4980239;28;20102;-70
2023/01/29 01:52:30;;;;;;;20.38;12.15;;;4.60;99.90;;;;;;4980580;28;20042;-70
2023/01/29 01:54:57;;;;;;;19.40;10.98;;;4.70;99.90;;;;;;4981277;28;20436;-70
2023/01/29 01:57:25;;;;;;;18.90;11.07;;;4.70;99.90;;;;;;4996348;28;20112;-70
2023/01/29 01:59:57;;;;;;;15.52;10.43;;;4.60;99.90;;;;;;4980917;28;20509;-71
2023/01/29 02:10:43;;;;;;;18.20;11.07;;;4.60;99.90;;;;;;4979921;28;20565;-70
2023/01/29 02:13:09;;;;;;;19.92;11.60;;;4.70;99.90;;;;;;4981329;28;20054;-70
2023/01/29 02:15:35;;;;;;;18.42;11.68;;;4.60;99.90;;;;;;4980401;28;20074;-70
2023/01/29 02:18:01;;;;;;;15.77;11.02;;;4.60;99.90;;;;;;4981485;28;20532;-70
2023/01/29 02:20:30;;;;;;;17.65;11.80;;;4.60;99.90;;;;;;4980423;28;20497;-70
2023/01/29 02:23:05;;;;;;;17.58;11.90;;;4.70;99.90;;;;;;4980107;28;20045;-70
2023/01/29 02:25:36;;;;;;;23.73;12.10;;;4.60;99.90;;;;;;4980232;28;20054;-70
2023/01/29 02:28:23;;;;;;;16.77;11.35;;;4.70;99.90;;;;;;4979898;28;20053;-70
2023/01/29 02:31:10;;;;;;;25.10;12.60;;;4.60;99.90;;;;;;4978876;28;20517;-70
2023/01/29 02:34:05;;;;;;;20.48;11.68;;;4.70;99.90;;;;;;4980489;28;20050;-70
2023/01/29 02:36:53;;;;;;;17.08;11.40;;;4.60;99.90;;;;;;4964734;28;20046;-70
2023/01/29 02:39:35;;;;;;;21.05;12.05;;;4.70;99.90;;;;;;4979749;28;20038;-70
2023/01/29 02:42:05;;;;;;;18.67;12.70;;;4.70;99.90;;;;;;4980904;28;20397;-70
2023/01/29 02:44:39;;;;;;;19.95;12.23;;;4.60;99.90;;;;;;4981683;28;20047;-70
2023/01/29 02:47:13;;;;;;;;;;;4.60;99.90;;;;;;4978906;28;20046;-70
2023/01/29 02:49:51;;;;;;;17.40;11.40;;;4.50;99.90;;;;;;4981405;28;20622;-70
2023/01/29 02:52:37;;;;;;;18.90;13.27;;;4.60;99.90;;;;;;4979044;28;20084;-70
2023/01/29 02:55:15;;;;;;;21.27;12.82;;;4.60;99.90;;;;;;4976585;28;20050;-70
2023/01/29 02:57:45;;;;;;;24.08;14.18;;;4.60;99.90;;;;;;4980018;28;20516;-70
2023/01/29 03:00:23;;;;;;;20.40;13.70;;;4.60;99.90;;;;;;4977675;28;20093;-70
2023/01/29 03:03:12;;;;;;;23.58;15.18;;;4.50;99.90;;;;;;4976125;28;20058;-70
2023/01/29 03:05:44;;;;;;;22.75;15.35;;;4.50;99.90;;;;;;4982058;28;20069;-70
2023/01/29 03:08:16;;;;;;;22.42;14.52;;;4.60;99.90;;;;;;4979937;28;20051;-70
2023/01/29 03:10:52;;;;;;;22.30;15.10;;;4.60;99.90;;;;;;4982105;28;20042;-70
2023/01/29 03:13:48;;;;;;;25.42;16.52;;;4.50;99.90;;;;;;4978822;28;20285;-70
2023/01/29 03:16:20;;;;;;;25.30;16.60;;;4.50;99.90;;;;;;4980938;28;20522;-70
2023/01/29 03:19:09;;;;;;;25.90;16.90;;;4.60;99.90;;;;;;4981996;28;20042;-71
2023/01/29 03:22:00;;;;;;;25.17;16.48;;;4.60;99.90;;;;;;4980070;28;20070;-71
2023/01/29 03:33:05;;;;;;;31.17;17.95;;;4.50;99.90;;;;;;4977118;28;20066;-70
2023/01/29 03:35:35;;;;;;;28.27;17.63;;;4.60;99.90;;;;;;4979676;28;20042;-70
2023/01/29 03:38:10;;;;;;;29.23;18.55;;;4.60;99.90;;;;;;4982048;28;20057;-70
2023/01/29 03:41:01;;;;;;;27.30;16.08;;;4.50;99.90;;;;;;4979493;28;20761;-70
2023/01/29 03:43:43;;;;;;;24.30;16.42;;;4.60;99.90;;;;;;4972613;28;20049;-70
2023/01/29 03:46:09;;;;;;;26.30;17.10;;;4.60;99.90;;;;;;4979140;28;20038;-70
2023/01/29 03:48:40;;;;;;;27.02;16.50;;;4.70;99.90;;;;;;4979758;28;20363;-70
2023/01/29 03:51:28;;;;;;;22.05;15.20;;;4.60;99.90;;;;;;4983113;28;20141;-70
2023/01/29 03:54:16;;;;;;;21.50;15.25;;;4.70;99.90;;;;;;4984514;28;20046;-70
2023/01/29 03:57:04;;;;;;;19.83;13.85;;;4.70;99.90;;;;;;4983693;28;20401;-70
2023/01/29 03:59:40;;;;;;;19.80;12.77;;;4.80;99.90;;;;;;4982644;28;20049;-70
2023/01/29 04:02:11;;;;;;;18.63;13.82;;;4.70;99.90;;;;;;4980113;28;20074;-70
2023/01/29 04:04:40;;;;;;;18.90;13.25;;;4.80;99.90;;;;;;4985142;28;20128;-71
2023/01/29 04:07:23;;;;;;;22.73;14.45;;;4.80;99.90;;;;;;4986621;28;20038;-70
2023/01/29 04:10:10;;;;;;;22.23;13.13;;;4.90;99.90;;;;;;4985582;28;20054;-70
2023/01/29 04:12:42;;;;;;;17.58;12.55;;;4.80;99.90;;;;;;4986317;28;20161;-70
2023/01/29 04:15:14;;;;;;;18.60;13.27;;;4.90;99.90;;;;;;4981815;28;20055;-71
2023/01/29 04:17:44;;;;;;;18.23;12.52;;;4.80;99.90;;;;;;4985616;28;20042;-71
2023/01/29 04:20:11;;;;;;;20.85;13.27;;;4.80;99.90;;;;;;4982520;28;20498;-70
2023/01/29 04:22:38;;;;;;;16.30;11.65;;;4.80;99.90;;;;;;4983643;28;20445;-71
2023/01/29 04:25:14;;;;;;;18.30;12.85;;;4.90;99.90;;;;;;4984762;28;20096;-70
2023/01/29 04:28:00;;;;;;;18.15;12.25;;;4.90;99.90;;;;;;4982795;28;20041;-71
2023/01/29 04:30:40;;;;;;;19.90;12.05;;;4.90;99.90;;;;;;4981431;28;20050;-70
2023/01/29 04:33:43;;;;;;;18.23;13.10;;;4.80;99.90;;;;;;4983966;28;20046;-70
2023/01/29 04:36:20;;;;;;;42.72;14.15;;;4.90;99.90;;;;;;4984124;28;20039;-70
2023/01/29 04:39:11;;;;;;;18.63;11.10;;;4.90;99.90;;;;;;4980694;28;20055;-70
2023/01/29 04:41:54;;;;;;;19.27;11.45;;;4.90;99.90;;;;;;4998042;28;20053;-70
2023/01/29 04:44:31;;;;;;;;;;;4.90;99.90;;;;;;4985172;28;20498;-69
2023/01/29 04:47:16;;;;;;;19.92;13.73;;;4.90;99.90;;;;;;5027575;22;19929;-71
2023/01/29 04:49:41;;;;;;;18.80;12.10;;;4.90;99.90;;;;;;4983615;28;20064;-72
2023/01/29 04:52:21;;;;;;;19.65;13.32;;;4.90;99.90;;;;;;4987595;28;20441;-71
2023/01/29 04:55:00;;;;;;;17.05;11.27;;;4.90;99.90;;;;;;4989810;28;20496;-71
2023/01/29 04:57:32;;;;;;;19.42;12.23;;;4.90;99.90;;;;;;4988245;28;20042;-71
2023/01/29 05:00:28;;;;;;;17.48;12.30;;;4.90;99.90;;;;;;5007919;28;20049;-71
2023/01/29 05:02:55;;;;;;;17.33;12.05;;;4.90;99.90;;;;;;5006100;28;20045;-71
2023/01/29 05:05:21;;;;;;;17.88;12.35;;;4.90;99.90;;;;;;5005285;28;20150;-71
2023/01/29 05:07:47;;;;;;;17.60;12.05;;;4.90;99.90;;;;;;5000836;28;20045;-71
2023/01/29 05:10:16;;;;;;;19.65;12.82;;;4.90;99.90;;;;;;5004352;28;20050;-71
2023/01/29 05:12:46;;;;;;;18.15;13.20;;;4.90;99.90;;;;;;5006955;28;20053;-71
2023/01/29 05:15:18;;;;;;;19.83;13.30;;;4.90;99.90;;;;;;5005799;28;20516;-71
2023/01/29 05:17:43;;;;;;;20.73;12.88;;;4.80;99.90;;;;;;4987199;28;20503;-70
2023/01/29 05:20:10;;;;;;;20.08;13.57;;;4.80;99.90;;;;;;5004961;28;20057;-70
2023/01/29 05:22:40;;;;;;;19.75;11.23;;;4.80;99.90;;;;;;4987345;28;20461;-72
2023/01/29 05:25:26;;;;;;;18.17;12.02;;;4.80;99.90;;;;;;5004528;28;20088;-72
2023/01/29 05:28:06;;;;;;;19.13;12.05;;;4.80;99.90;;;;;;4989392;28;20045;-72
2023/01/29 05:30:37;;;;;;;18.08;11.90;;;4.80;99.90;;;;;;4986407;28;20107;-71
2023/01/29 05:33:04;;;;;;;20.05;12.77;;;4.80;99.90;;;;;;5002995;28;20563;-72
2023/01/29 05:35:30;;;;;;;20.05;13.88;;;4.80;99.90;;;;;;4987416;28;20129;-72
2023/01/29 05:37:56;;;;;;;17.33;12.77;;;4.80;99.90;;;;;;4986284;28;20042;-71
2023/01/29 05:40:23;;;;;;;17.73;12.15;;;4.80;99.90;;;;;;4988316;28;20034;-73
2023/01/29 05:42:49;;;;;;;17.35;11.93;;;4.90;99.90;;;;;;5001889;28;20042;-72
2023/01/29 05:45:16;;;;;;;22.73;14.52;;;4.80;99.90;;;;;;4985449;28;20046;-71
2023/01/29 05:47:42;;;;;;;19.23;13.05;;;4.80;99.90;;;;;;5006544;28;20568;-72
2023/01/29 05:50:08;;;;;;;21.00;15.43;;;4.80;99.90;;;;;;5003390;28;20075;-72
2023/01/29 05:52:34;;;;;;;20.52;14.18;;;4.80;99.90;;;;;;4985881;28;20038;-71
2023/01/29 05:54:59;;;;;;;21.45;15.48;;;4.80;99.90;;;;;;5004800;28;20049;-71
2023/01/29 05:57:25;;;;;;;23.08;15.57;;;4.70;99.90;;;;;;4987503;28;20033;-71
2023/01/29 05:59:51;;;;;;;22.98;16.75;;;4.70;99.90;;;;;;4982009;28;20126;-71
2023/01/29 06:02:16;;;;;;;27.40;19.02;;;4.70;99.90;;;;;;4987934;28;20041;-72
2023/01/29 06:04:42;;;;;;;26.42;18.40;;;4.70;99.90;;;;;;5009760;28;22004;-71
2023/01/29 06:07:07;;;;;;;31.75;17.48;;;4.70;99.90;;;;;;5004426;28;20126;-71
2023/01/29 06:09:33;;;;;;;27.20;18.05;;;4.70;99.90;;;;;;4984109;28;20067;-72
2023/01/29 06:11:59;;;;;;;31.98;20.02;;;4.70;99.90;;;;;;5002818;28;20121;-72
2023/01/29 06:14:24;;;;;;;30.27;20.27;;;4.60;99.90;;;;;;4979233;28;20117;-72
2023/01/29 06:16:50;;;;;;;34.67;21.98;;;4.60;99.90;;;;;;4988224;28;20121;-72
2023/01/29 06:19:17;;;;;;;33.92;17.30;;;4.60;99.90;;;;;;5002893;28;20544;-72
2023/01/29 06:21:42;;;;;;;41.63;23.40;;;4.50;99.90;;;;;;4987848;28;20123;-72
2023/01/29 06:24:08;;;;;;;38.35;23.75;;;4.50;99.90;;;;;;4981578;28;20184;-72
2023/01/29 06:26:34;;;;;;;45.03;24.95;;;4.50;99.90;;;;;;4988932;28;20060;-72
2023/01/29 06:28:59;;;;;;;34.10;22.17;;;4.40;99.90;;;;;;4984026;28;20052;-70
2023/01/29 06:31:25;;;;;;;30.30;18.73;;;4.40;99.90;;;;;;4979362;28;20120;-71
2023/01/29 06:33:51;;;;;;;32.03;18.95;;;4.40;99.90;;;;;;4985141;28;20513;-71
2023/01/29 06:36:16;;;;;;;33.95;20.80;;;4.50;99.90;;;;;;5002399;28;20045;-71
2023/01/29 06:38:42;;;;;;;35.08;20.38;;;4.40;99.90;;;;;;4985299;28;20050;-71
2023/01/29 06:41:10;;;;;;;40.45;23.70;;;4.50;99.90;;;;;;4985584;28;20049;-72
2023/01/29 06:43:36;;;;;;;43.17;24.55;;;4.40;99.90;;;;;;5005025;28;20554;-71
2023/01/29 06:46:02;;;;;;;34.70;21.48;;;4.40;99.90;;;;;;4986356;28;20497;-71
2023/01/29 06:48:28;;;;;;;39.42;24.85;;;4.40;99.90;;;;;;5007011;28;20096;-71
2023/01/29 06:50:54;;;;;;;35.88;21.77;;;4.40;99.90;;;;;;4981385;28;20487;-71
2023/01/29 06:53:20;;;;;;;38.22;24.45;;;4.40;99.90;;;;;;4985605;28;20132;-71
2023/01/29 06:55:53;;;;;;;41.72;24.80;;;4.40;99.90;;;;;;5001577;28;20157;-71
2023/01/29 06:58:19;;;;;;;32.05;20.45;;;4.40;99.90;;;;;;5004233;28;20517;-71
2023/01/29 07:00:45;;;;;;;40.53;22.88;;;4.40;99.90;;;;;;4988160;28;20060;-71
2023/01/29 07:03:11;;;;;;;26.55;11.25;;;4.40;99.90;;;;;;4985243;28;20046;-71
2023/01/29 07:05:37;;;;;;;38.25;21.45;;;4.40;99.90;;;;;;4986376;28;20108;-71
2023/01/29 07:08:03;;;;;;;35.00;21.83;;;4.40;99.90;;;;;;4984718;28;20046;-71
2023/01/29 07:10:29;;;;;;;42.03;23.77;;;4.40;99.90;;;;;;4983926;28;20049;-71
2023/01/29 07:12:54;;;;;;;41.92;24.63;;;4.30;99.90;;;;;;4986876;28;20064;-71
2023/01/29 07:15:20;;;;;;;45.85;25.88;;;4.40;99.90;;;;;;5002781;28;20046;-71
2023/01/29 07:17:56;;;;;;;42.92;23.88;;;4.40;99.90;;;;;;5007485;28;20045;-71
2023/01/29 07:20:24;;;;;;;42.22;25.45;;;4.50;99.90;;;;;;4981535;28;20050;-71
2023/01/29 07:22:49;;;;;;;34.45;18.55;;;4.40;99.90;;;;;;4980587;28;20537;-71
2023/01/29 07:25:15;;;;;;;44.75;25.02;;;4.40;99.90;;;;;;4983160;28;20042;-70
2023/01/29 07:27:41;;;;;;;41.58;23.50;;;4.40;99.90;;;;;;5004326;28;20042;-70
2023/01/29 07:30:07;;;;;;;45.00;26.05;;;4.50;99.90;;;;;;4984042;28;20050;-71
2023/01/29 07:32:33;;;;;;;42.80;25.15;;;4.40;99.90;;;;;;4986159;28;20511;-71
2023/01/29 07:34:58;;;;;;;49.92;28.05;;;4.40;99.90;;;;;;4986918;28;20121;-71
2023/01/29 07:37:24;;;;;;;50.10;28.00;;;4.40;99.90;;;;;;4988343;28;20481;-71
2023/01/29 07:39:50;;;;;;;51.15;30.77;;;4.40;99.90;;;;;;5002241;28;20133;-70
2023/01/29 07:42:15;;;;;;;39.80;23.65;;;4.40;99.90;;;;;;4982758;28;20100;-70
2023/01/29 07:44:41;;;;;;;55.83;30.05;;;4.50;99.90;;;;;;5003853;28;20046;-70
2023/01/29 07:47:06;;;;;;;57.40;30.67;;;4.50;99.90;;;;;;4988726;28;20648;-71
2023/01/29 07:49:32;;;;;;;55.35;30.92;;;4.50;99.90;;;;;;5001742;28;20543;-70
2023/01/29 07:51:58;;;;;;;52.40;30.23;;;4.50;99.90;;;;;;5008148;28;20121;-73
2023/01/29 07:54:23;;;;;;;49.40;28.27;;;4.40;99.90;;;;;;4982939;28;20148;-74
2023/01/29 07:56:49;;;;;;;56.75;31.77;;;4.50;99.90;;;;;;4980631;28;20054;-73
2023/01/29 07:59:15;;;;;;;57.75;32.28;;;4.40;99.90;;;;;;4982969;28;20133;-73
2023/01/29 08:01:40;;;;;;;51.15;29.40;;;4.60;99.90;;;;;;5004092;28;20077;-73
2023/01/29 08:04:06;;;;;;;45.03;24.52;;;4.50;99.90;;;;;;4987926;28;20041;-73
2023/01/29 08:06:32;;;;;;;52.50;31.50;;;4.50;99.90;;;;;;5001582;28;20049;-72
2023/01/29 08:08:58;;;;;;;50.28;30.27;;;4.50;99.90;;;;;;4988201;28;20030;-72
2023/01/29 08:11:24;;;;;;;58.30;32.20;;;4.50;99.90;;;;;;5004552;28;20069;-72
2023/01/29 08:13:49;;;;;;;52.50;29.50;;;4.50;99.90;;;;;;5003566;28;20061;-73
2023/01/29 08:16:15;;;;;;;55.05;29.85;;;4.60;99.90;;;;;;5005601;28;20098;-73
2023/01/29 08:18:45;;;;;;;58.60;31.75;;;4.60;99.90;;;;;;5004772;28;20527;-72
2023/01/29 08:21:10;;;;;;;37.58;19.65;;;4.70;99.90;;;;;;4983622;28;20073;-73
2023/01/29 08:23:36;;;;;;;55.45;31.90;;;4.60;99.90;;;;;;4989721;28;20080;-72
2023/01/29 08:28:40;;;;;;;54.95;28.48;;;4.60;99.90;;;;;;3379175;26;20512;-73
2023/01/29 08:31:15;;;;;;;48.17;27.33;;;4.60;99.90;;;;;;5045223;28;20056;-73
2023/01/29 08:33:41;;;;;;;47.30;29.65;;;4.70;99.90;;;;;;5042453;28;20060;-73
2023/01/29 08:36:08;;;;;;;44.60;26.27;;;4.70;99.90;;;;;;5040547;28;20571;-72
2023/01/29 08:38:33;;;;;;;47.97;27.80;;;4.60;99.90;;;;;;5046046;28;20475;-73
2023/01/29 08:40:59;;;;;;;46.55;25.90;;;4.60;99.90;;;;;;5044482;28;20047;-73
2023/01/29 08:43:25;;;;;;;39.00;22.20;;;4.70;99.90;;;;;;5059154;28;20052;-69
2023/01/29 08:45:50;;;;;;;45.92;27.30;;;4.70;99.90;;;;;;5045369;28;20036;-70
2023/01/29 08:48:16;;;;;;;52.33;27.95;;;4.70;99.90;;;;;;5059571;28;20040;-71
2023/01/29 08:50:41;;;;;;;53.47;28.23;;;4.60;99.90;;;;;;5044849;28;20049;-70
2023/01/29 08:53:08;;;;;;;48.22;28.88;;;4.70;99.90;;;;;;5049785;28;20105;-71
2023/01/29 08:55:40;;;;;;;44.33;25.05;;;4.70;99.90;;;;;;5045209;28;20121;-71
2023/01/29 08:58:10;;;;;;;54.80;29.88;;;4.80;99.90;;;;;;5042849;28;20045;-71
2023/01/29 09:00:36;;;;;;;55.17;28.55;;;4.70;99.90;;;;;;5045296;28;20041;-71
2023/01/29 09:03:02;;;;;;;52.78;29.55;;;4.70;99.90;;;;;;5042204;28;20045;-71
2023/01/29 09:05:28;;;;;;;48.63;27.65;;;4.80;99.90;;;;;;5041339;28;20071;-71
2023/01/29 09:07:56;;;;;;;55.80;28.52;;;4.70;99.90;;;;;;5065787;28;20568;-71
2023/01/29 09:10:22;;;;;;;48.13;27.35;;;4.80;99.90;;;;;;5045966;28;20040;-72
2023/01/29 09:12:47;;;;;;;47.75;26.55;;;4.80;99.90;;;;;;5044447;28;20036;-73
2023/01/29 09:15:13;;;;;;;54.92;30.02;;;4.90;99.90;;;;;;5061981;28;20041;-70
2023/01/29 09:17:39;;;;;;;44.85;25.17;;;4.70;99.90;;;;;;5048357;28;20053;-72
2023/01/29 09:20:07;;;;;;;51.08;30.17;;;4.80;99.90;;;;;;5058405;28;20072;-72
2023/01/29 09:22:34;;;;;;;59.83;30.25;;;4.90;99.90;;;;;;5044709;28;20043;-71
2023/01/29 09:25:00;;;;;;;52.60;28.00;;;4.80;99.90;;;;;;5041144;28;20043;-72
2023/01/29 09:27:26;;;;;;;36.45;20.58;;;4.90;99.90;;;;;;5032290;28;20053;-71
2023/01/29 09:29:51;;;;;;;47.20;26.90;;;4.90;99.90;;;;;;5050204;28;20048;-72
2023/01/29 09:32:17;;;;;;;50.65;26.50;;;5.00;99.90;;;;;;5027332;28;20442;-73
2023/01/29 09:34:43;;;;;;;51.47;23.55;;;4.90;99.90;;;;;;5031747;28;20124;-72
2023/01/29 09:37:08;;;;;;;49.90;28.38;;;4.90;99.90;;;;;;5046532;28;20183;-71
2023/01/29 09:39:34;;;;;;;53.67;29.25;;;5.00;99.90;;;;;;5049757;28;20106;-71
2023/01/29 09:42:07;;;;;;;45.72;25.02;;;5.00;99.90;;;;;;5025009;28;20404;-72
2023/01/29 09:44:38;;;;;;;45.60;26.35;;;5.10;99.90;;;;;;5048008;28;20111;-72
2023/01/29 09:47:09;;;;;;;37.85;19.65;;;5.00;99.90;;;;;;5026813;28;20060;-71
2023/01/29 09:49:41;;;;;;;41.35;23.45;;;5.10;99.90;;;;;;5053081;28;20058;-70
2023/01/29 09:52:25;;;;;;;47.60;25.23;;;5.00;99.90;;;;;;5027896;28;20040;-70
2023/01/29 09:55:09;;;;;;;55.97;28.83;;;5.10;99.90;;;;;;5053432;28;20040;-70
2023/01/29 09:58:10;;;;;;;45.55;23.27;;;5.20;99.90;;;;;;5028489;28;20063;-70
2023/01/29 10:01:02;;;;;;;48.65;27.42;;;5.20;99.90;;;;;;5024605;28;20041;-71
2023/01/29 10:03:53;;;;;;;45.55;25.67;;;5.10;99.90;;;;;;5028500;28;20065;-71
2023/01/29 10:06:42;;;;;;;39.53;20.67;;;5.10;99.90;;;;;;5047762;28;20045;-70
2023/01/29 10:09:25;;;;;;;30.70;15.40;;;5.10;99.90;;;;;;5044523;28;20044;-70
2023/01/29 10:12:24;;;;;;;39.50;21.33;;;5.20;99.90;;;;;;5029349;28;20064;-70
2023/01/29 10:15:11;;;;;;;52.05;25.83;;;5.20;99.90;;;;;;5035664;28;20506;-70
2023/01/29 10:17:58;;;;;;;36.00;19.10;;;5.20;99.90;;;;;;5026577;28;20056;-71
2023/01/29 10:20:54;;;;;;;48.80;23.23;;;5.10;99.90;;;;;;5026375;28;20098;-71
2023/01/29 10:23:48;;;;;;;37.33;21.90;;;5.10;99.90;;;;;;5029339;28;20079;-71
2023/01/29 10:26:14;;;;;;;52.20;26.38;;;5.20;99.90;;;;;;5023950;28;20102;-70
2023/01/29 10:28:47;;;;;;;54.90;26.92;;;5.20;99.90;;;;;;5052827;28;20042;-70
2023/01/29 10:31:30;;;;;;;33.63;18.90;;;5.10;99.90;;;;;;5031837;28;20037;-70
2023/01/29 10:34:13;;;;;;;41.53;21.33;;;5.20;99.90;;;;;;5025212;28;20069;-70
2023/01/29 10:36:44;;;;;;;50.73;25.93;;;5.20;99.90;;;;;;5025321;28;20040;-70
2023/01/29 10:39:17;;;;;;;51.53;26.35;;;5.20;99.90;;;;;;5047816;28;20293;-69
2023/01/29 10:42:20;;;;;;;53.03;25.23;;;5.30;99.90;;;;;;5043389;28;20028;-70
2023/01/29 10:44:55;;;;;;;48.03;25.67;;;5.20;99.90;;;;;;5031102;28;20745;-70
2023/01/29 10:47:23;;;;;;;52.70;25.02;;;5.40;99.90;;;;;;5021173;28;20066;-70
2023/01/29 10:50:10;;;;;;;39.72;22.10;;;5.40;99.90;;;;;;5038945;28;20072;-70
2023/01/29 10:52:54;;;;;;;51.22;25.17;;;5.40;99.90;;;;;;5040311;28;20454;-71
2023/01/29 10:55:44;;;;;;;41.85;20.17;;;5.30;99.90;;;;;;5043867;28;20068;-71
2023/01/29 10:58:30;;;;;;;36.55;18.70;;;5.30;99.90;;;;;;5025438;28;20057;-70
2023/01/29 11:00:57;;;;;;;41.55;21.38;;;5.30;99.90;;;;;;5022195;28;20080;-71
2023/01/29 11:03:25;;;;;;;45.95;22.58;;;5.40;99.90;;;;;;5048685;28;20580;-71
2023/01/29 11:06:00;;;;;;;38.83;21.27;;;5.40;99.90;;;;;;5047223;28;20041;-71
2023/01/29 11:08:36;;;;;;;39.85;22.30;;;5.50;99.90;;;;;;5034472;28;20041;-71
2023/01/29 11:11:13;;;;;;;41.67;20.13;;;5.40;99.90;;;;;;5049891;28;20433;-71
2023/01/29 11:13:54;;;;;;;36.67;17.90;;;5.40;99.90;;;;;;5028209;28;20044;-71
2023/01/29 11:16:20;;;;;;;42.45;23.00;;;5.50;99.90;;;;;;5049830;28;20051;-70
2023/01/29 11:18:52;;;;;;;36.65;18.25;;;5.50;99.90;;;;;;5048882;28;20045;-71
2023/01/29 11:21:18;;;;;;;34.47;19.30;;;5.50;99.90;;;;;;5047923;28;20055;-71
2023/01/29 11:23:45;;;;;;;41.78;21.25;;;5.60;99.90;;;;;;5028538;28;20040;-72
2023/01/29 11:26:15;;;;;;;42.40;21.73;;;5.60;99.90;;;;;;5055903;28;20037;-71
2023/01/29 11:28:43;;;;;;;44.30;25.77;;;5.50;99.90;;;;;;5054133;28;20127;-70
2023/01/29 11:31:25;;;;;;;34.58;17.77;;;5.70;99.90;;;;;;5052405;28;20550;-70
2023/01/29 11:34:11;;;;;;;39.75;20.90;;;5.60;99.90;;;;;;5034417;28;20041;-72
2023/01/29 11:36:38;;;;;;;32.30;17.65;;;5.60;99.90;;;;;;5030743;28;20040;-70
2023/01/29 11:39:07;;;;;;;35.53;19.38;;;5.60;99.90;;;;;;5028642;28;20067;-72
2023/01/29 11:41:47;;;;;;;34.22;18.00;;;5.60;99.90;;;;;;5029337;28;20110;-68
2023/01/29 11:44:40;;;;;;;31.50;17.55;;;5.70;99.90;;;;;;5027417;28;20672;-69
2023/01/29 11:47:13;;;;;;;32.70;17.73;;;5.70;99.90;;;;;;5046492;28;20045;-68
2023/01/29 11:49:43;;;;;;;;;;;5.90;99.90;;;;;;5052371;28;20488;-68
2023/01/29 11:52:10;;;;;;;30.85;15.80;;;5.90;99.90;;;;;;5052410;28;19921;-69
2023/01/29 11:54:45;;;;;;;24.30;13.32;;;5.90;99.90;;;;;;5051896;28;20799;-69
2023/01/29 11:57:26;;;;;;;26.67;14.32;;;5.90;99.90;;;;;;5049134;28;20488;-69
2023/01/29 11:59:54;;;;;;;26.75;15.48;;;5.90;99.90;;;;;;5056449;28;20034;-69
2023/01/29 12:02:29;;;;;;;26.00;14.40;;;5.90;99.90;;;;;;5054052;28;20047;-68
2023/01/29 12:04:56;;;;;;;19.15;10.88;;;5.90;99.90;;;;;;5032791;28;20376;-69
2023/01/29 12:07:22;;;;;;;30.48;16.42;;;5.90;99.90;;;;;;5052023;28;20393;-69
2023/01/29 12:09:54;;;;;;;23.75;12.35;;;5.80;99.90;;;;;;5034574;28;20056;-69
2023/01/29 12:12:28;;;;;;;37.95;19.25;;;5.90;99.90;;;;;;5048408;28;20044;-69
2023/01/29 12:15:24;;;;;;;29.33;14.93;;;5.90;99.90;;;;;;5046195;28;20049;-69
2023/01/29 12:18:03;;;;;;;19.13;10.20;;;5.90;99.90;;;;;;5030361;28;20041;-69
2023/01/29 12:20:36;;;;;;;25.58;13.30;;;5.90;99.90;;;;;;5032680;28;20403;-69
2023/01/29 12:23:15;;;;;;;15.25;8.73;;;5.90;99.90;;;;;;5031416;28;20045;-69
2023/01/29 12:25:55;;;;;;;18.73;9.82;;;5.90;99.90;;;;;;5050198;28;20041;-69
2023/01/29 12:28:29;;;;;;;23.60;12.10;;;5.80;99.90;;;;;;5046531;28;20049;-70
2023/01/29 12:31:14;;;;;;;20.48;10.02;;;5.90;99.90;;;;;;5046393;28;20049;-70
2023/01/29 12:34:19;;;;;;;18.63;8.70;;;5.90;99.90;;;;;;5023417;28;20068;-69
2023/01/29 12:37:16;;;;;;;21.67;10.27;;;5.80;99.90;;;;;;5050105;28;20055;-69
2023/01/29 12:39:42;;;;;;;15.50;8.05;;;5.90;99.90;;;;;;5046721;28;20111;-68
2023/01/29 12:42:16;;;;;;;19.88;9.63;;;5.80;99.90;;;;;;5055001;28;20037;-70
2023/01/29 12:44:56;;;;;;;23.70;9.82;;;6.00;99.90;;;;;;5025754;28;20045;-69
2023/01/29 12:47:51;;;;;;;23.75;9.52;;;6.00;99.90;;;;;;5056496;28;20136;-70
2023/01/29 12:50:31;;;;;;;23.48;10.20;;;5.90;99.90;;;;;;5040976;28;20040;-69
2023/01/29 12:53:24;;;;;;;15.70;8.65;;;5.90;99.90;;;;;;5055131;28;20094;-69
2023/01/29 12:56:01;;;;;;;21.07;9.10;;;6.00;99.90;;;;;;5052589;28;20036;-68
2023/01/29 12:58:40;;;;;;;11.27;5.60;;;6.10;99.90;;;;;;5033400;28;20291;-67
2023/01/29 13:01:19;;;;;;;14.20;7.05;;;6.00;99.90;;;;;;5052646;28;20138;-69
2023/01/29 13:03:48;;;;;;;20.48;12.18;;;6.10;99.90;;;;;;5055571;28;20044;-68
2023/01/29 13:06:27;;;;;;;15.23;6.80;;;6.20;99.90;;;;;;5049959;28;20045;-68
2023/01/29 13:09:08;;;;;;;9.93;5.47;;;6.00;99.90;;;;;;5045396;28;20041;-68
2023/01/29 13:11:41;;;;;;;11.40;6.00;;;6.00;99.90;;;;;;5041049;28;20507;-68
2023/01/29 13:14:16;;;;;;;13.27;7.45;;;6.10;99.90;;;;;;5034277;28;20036;-69
2023/01/29 13:16:46;;;;;;;14.40;7.88;;;6.10;99.90;;;;;;5028425;28;20049;-69
2023/01/29 13:19:28;;;;;;;13.35;7.03;;;6.10;99.90;;;;;;5043204;28;20125;-67
2023/01/29 13:21:58;;;;;;;14.90;7.82;;;6.00;99.90;;;;;;5045135;28;20784;-68
2023/01/29 13:24:29;;;;;;;16.58;8.73;;;6.00;99.90;;;;;;5027140;28;20033;-68
2023/01/29 13:26:55;;;;;;;18.15;9.40;;;5.80;99.90;;;;;;5048615;28;20645;-68
2023/01/29 13:29:27;;;;;;;18.40;8.65;;;6.00;99.90;;;;;;5029813;28;20531;-69
2023/01/29 13:31:58;;;;;;;16.27;8.02;;;5.80;99.90;;;;;;5032723;28;20051;-67